Time,TemperatureF,DewpointF,PressureIn,WindDirection,WindDirectionDegrees,WindSpeedMPH,WindSpeedGustMPH,Humidity,HourlyPrecipIn,Conditions,Clouds,dailyrainin,SoftwareType,DateUTC
2013-03-02 00:36:00,49.2,46.7,30.23,WNW,293,0.0,-999.0,91,0.00,,,0.00,Wunderground v.1.15,2013-03-02 08:36:00,
2013-03-02 00:41:00,49.1,46.6,30.23,WNW,293,1.0,-999.0,91,0.00,,,0.00,Wunderground v.1.15,2013-03-02 08:41:00,
2013-03-02 00:46:00,49.1,46.6,30.23,WNW,293,1.0,-999.0,91,0.00,,,0.00,Wunderground v.1.15,2013-03-02 08:46:00,
2013-03-02 00:51:00,49.1,46.6,30.23,WNW,293,1.0,-999.0,91,0.00,,,0.00,Wunderground v.1.15,2013-03-02 08:51:00,
2013-03-02 00:56:00,49.1,46.9,30.23,WNW,293,0.0,-999.0,92,0.00,,,0.00,Wunderground v.1.15,2013-03-02 08:56:00,
2013-03-02 01:01:00,49.1,46.9,30.23,WNW,293,0.0,-999.0,92,0.00,,,0.00,Wunderground v.1.15,2013-03-02 09:01:00,
2013-03-02 01:06:00,49.1,46.9,30.23,WNW,293,0.0,-999.0,92,0.00,,,0.00,Wunderground v.1.15,2013-03-02 09:06:00,
2013-03-02 01:11:00,49.2,47.0,30.22,WNW,293,0.0,-999.0,92,0.00,,,0.00,Wunderground v.1.15,2013-03-02 09:11:00,
2013-03-02 01:16:00,49.2,47.0,30.22,WNW,293,0.0,-999.0,92,0.00,,,0.00,Wunderground v.1.15,2013-03-02 09:16:00,
2013-03-02 01:21:00,49.2,47.0,30.22,WNW,293,0.0,-999.0,92,0.00,,,0.00,Wunderground v.1.15,2013-03-02 09:21:00,
2013-03-02 01:26:00,49.1,46.9,30.23,WNW,293,0.0,-999.0,92,0.00,,,0.00,Wunderground v.1.15,2013-03-02 09:26:00,
2013-03-02 01:31:00,49.1,46.9,30.23,WNW,293,0.0,-999.0,92,0.00,,,0.00,Wunderground v.1.15,2013-03-02 09:31:00,
2013-03-02 01:36:00,49.1,46.9,30.23,WNW,293,0.0,-999.0,92,0.00,,,0.00,Wunderground v.1.15,2013-03-02 09:36:00,
2013-03-02 01:41:00,49.1,46.9,30.22,WNW,293,0.0,-999.0,92,0.00,,,0.00,Wunderground v.1.15,2013-03-02 09:41:00,
2013-03-02 01:46:00,49.1,46.9,30.22,WNW,293,0.0,-999.0,92,0.00,,,0.00,Wunderground v.1.15,2013-03-02 09:46:00,
2013-03-02 01:51:00,49.1,46.9,30.22,WNW,293,0.0,-999.0,92,0.00,,,0.00,Wunderground v.1.15,2013-03-02 09:51:00,
2013-03-02 01:56:00,49.1,46.9,30.21,WNW,293,0.0,-999.0,92,0.00,,,0.00,Wunderground v.1.15,2013-03-02 09:56:00,
2013-03-02 02:01:00,49.1,46.9,30.21,WNW,293,0.0,-999.0,92,0.00,,,0.00,Wunderground v.1.15,2013-03-02 10:01:00,
2013-03-02 02:06:00,49.1,46.9,30.21,WNW,293,0.0,-999.0,92,0.00,,,0.00,Wunderground v.1.15,2013-03-02 10:06:00,
2013-03-02 02:11:00,49.1,46.9,30.21,WNW,293,1.0,-999.0,92,0.00,,,0.00,Wunderground v.1.15,2013-03-02 10:11:00,
2013-03-02 02:16:00,49.1,46.9,30.21,WNW,293,1.0,-999.0,92,0.00,,,0.00,Wunderground v.1.15,2013-03-02 10:16:00,
2013-03-02 02:21:00,49.1,46.9,30.21,WNW,293,1.0,-999.0,92,0.00,,,0.00,Wunderground v.1.15,2013-03-02 10:21:00,
2013-03-02 02:26:00,49.1,46.9,30.20,WNW,293,0.0,-999.0,92,0.00,,,0.00,Wunderground v.1.15,2013-03-02 10:26:00,
2013-03-02 02:31:00,49.1,46.9,30.20,WNW,293,0.0,-999.0,92,0.00,,,0.00,Wunderground v.1.15,2013-03-02 10:31:00,
2013-03-02 02:36:00,49.1,46.9,30.20,WNW,293,0.0,-999.0,92,0.00,,,0.00,Wunderground v.1.15,2013-03-02 10:36:00,
2013-03-02 02:41:00,49.1,46.9,30.20,WNW,293,0.0,-999.0,92,0.00,,,0.00,Wunderground v.1.15,2013-03-02 10:41:00,
2013-03-02 02:46:00,49.1,46.9,30.20,WNW,293,0.0,-999.0,92,0.00,,,0.00,Wunderground v.1.15,2013-03-02 10:46:00,
2013-03-02 02:51:00,49.1,46.9,30.20,WNW,293,0.0,-999.0,92,0.00,,,0.00,Wunderground v.1.15,2013-03-02 10:51:00,
2013-03-02 02:56:00,49.0,46.8,30.19,WNW,293,0.0,-999.0,92,0.00,,,0.00,Wunderground v.1.15,2013-03-02 10:56:00,
2013-03-02 03:01:00,49.0,46.8,30.19,WNW,293,0.0,-999.0,92,0.00,,,0.00,Wunderground v.1.15,2013-03-02 11:01:00,
2013-03-02 03:06:00,49.0,46.8,30.19,WNW,293,0.0,-999.0,92,0.00,,,0.00,Wunderground v.1.15,2013-03-02 11:06:00,
2013-03-02 03:11:00,48.7,46.5,30.19,WNW,293,0.0,-999.0,92,0.00,,,0.00,Wunderground v.1.15,2013-03-02 11:11:00,
2013-03-02 03:16:00,48.7,46.5,30.19,WNW,293,0.0,-999.0,92,0.00,,,0.00,Wunderground v.1.15,2013-03-02 11:16:00,
2013-03-02 03:21:00,48.7,46.5,30.19,WNW,293,0.0,-999.0,92,0.00,,,0.00,Wunderground v.1.15,2013-03-02 11:21:00,
2013-03-02 03:26:00,48.4,46.2,30.17,WNW,293,0.0,-999.0,92,0.00,,,0.00,Wunderground v.1.15,2013-03-02 11:26:00,
2013-03-02 03:31:00,48.4,46.2,30.17,WNW,293,0.0,-999.0,92,0.00,,,0.00,Wunderground v.1.15,2013-03-02 11:31:00,
2013-03-02 03:36:00,48.4,46.2,30.17,WNW,293,0.0,-999.0,92,0.00,,,0.00,Wunderground v.1.15,2013-03-02 11:36:00,
2013-03-02 03:41:00,48.2,46.0,30.17,WNW,293,0.0,-999.0,92,0.00,,,0.00,Wunderground v.1.15,2013-03-02 11:41:00,
2013-03-02 03:46:00,48.2,46.0,30.17,WNW,293,0.0,-999.0,92,0.00,,,0.00,Wunderground v.1.15,2013-03-02 11:46:00,
2013-03-02 03:51:00,48.2,46.0,30.17,WNW,293,0.0,-999.0,92,0.00,,,0.00,Wunderground v.1.15,2013-03-02 11:51:00,
2013-03-02 03:56:00,48.2,46.3,30.17,WNW,293,0.0,-999.0,93,0.00,,,0.00,Wunderground v.1.15,2013-03-02 11:56:00,
2013-03-02 04:01:00,48.2,46.3,30.17,WNW,293,0.0,-999.0,93,0.00,,,0.00,Wunderground v.1.15,2013-03-02 12:01:00,
2013-03-02 04:06:00,48.2,46.3,30.17,WNW,293,0.0,-999.0,93,0.00,,,0.00,Wunderground v.1.15,2013-03-02 12:06:00,
2013-03-02 04:11:00,48.3,46.4,30.16,WNW,293,0.0,-999.0,93,0.00,,,0.00,Wunderground v.1.15,2013-03-02 12:11:00,
2013-03-02 04:16:00,48.3,46.4,30.16,WNW,293,0.0,-999.0,93,0.00,,,0.00,Wunderground v.1.15,2013-03-02 12:16:00,
2013-03-02 04:21:00,48.3,46.4,30.16,WNW,293,0.0,-999.0,93,0.00,,,0.00,Wunderground v.1.15,2013-03-02 12:21:00,
2013-03-02 04:26:00,48.3,46.4,30.16,N/A,-737280,0.0,-999.0,93,0.00,,,0.00,Wunderground v.1.15,2013-03-02 12:26:00,
2013-03-02 04:31:00,48.3,46.4,30.16,N/A,-737280,0.0,-999.0,93,0.00,,,0.00,Wunderground v.1.15,2013-03-02 12:31:00,
2013-03-02 04:36:00,48.3,46.4,30.16,N/A,-737280,0.0,-999.0,93,0.00,,,0.00,Wunderground v.1.15,2013-03-02 12:36:00,
2013-03-02 04:41:00,48.3,46.4,30.16,WNW,293,0.0,-999.0,93,0.00,,,0.00,Wunderground v.1.15,2013-03-02 12:41:00,
2013-03-02 04:46:00,48.3,46.4,30.16,WNW,293,0.0,-999.0,93,0.00,,,0.00,Wunderground v.1.15,2013-03-02 12:46:00,
2013-03-02 04:51:00,48.3,46.4,30.16,WNW,293,0.0,-999.0,93,0.00,,,0.00,Wunderground v.1.15,2013-03-02 12:51:00,
2013-03-02 04:56:00,48.3,46.4,30.15,WNW,293,0.0,-999.0,93,0.00,,,0.00,Wunderground v.1.15,2013-03-02 12:56:00,
2013-03-02 05:01:00,48.3,46.4,30.15,WNW,293,0.0,-999.0,93,0.00,,,0.00,Wunderground v.1.15,2013-03-02 13:01:00,
2013-03-02 05:06:00,48.3,46.4,30.15,WNW,293,0.0,-999.0,93,0.00,,,0.00,Wunderground v.1.15,2013-03-02 13:06:00,
2013-03-02 05:11:00,48.3,46.7,30.16,N/A,-737280,0.0,-999.0,94,0.00,,,0.00,Wunderground v.1.15,2013-03-02 13:11:00,
2013-03-02 05:16:00,48.3,46.7,30.16,N/A,-737280,0.0,-999.0,94,0.00,,,0.00,Wunderground v.1.15,2013-03-02 13:16:00,
2013-03-02 05:21:00,48.3,46.7,30.16,N/A,-737280,0.0,-999.0,94,0.00,,,0.00,Wunderground v.1.15,2013-03-02 13:21:00,
2013-03-02 05:26:00,48.2,46.6,30.16,WNW,293,1.0,-999.0,94,0.00,,,0.00,Wunderground v.1.15,2013-03-02 13:26:00,
2013-03-02 05:31:00,48.2,46.6,30.16,WNW,293,1.0,-999.0,94,0.00,,,0.00,Wunderground v.1.15,2013-03-02 13:31:00,
2013-03-02 05:36:00,48.2,46.6,30.16,WNW,293,1.0,-999.0,94,0.00,,,0.00,Wunderground v.1.15,2013-03-02 13:36:00,
2013-03-02 05:41:00,48.1,46.5,30.15,WNW,293,0.0,-999.0,94,0.00,,,0.00,Wunderground v.1.15,2013-03-02 13:41:00,
2013-03-02 05:46:00,48.1,46.5,30.15,WNW,293,0.0,-999.0,94,0.00,,,0.00,Wunderground v.1.15,2013-03-02 13:46:00,
2013-03-02 05:51:00,48.1,46.5,30.15,WNW,293,0.0,-999.0,94,0.00,,,0.00,Wunderground v.1.15,2013-03-02 13:51:00,
2013-03-02 05:56:00,48.1,46.5,30.14,WNW,293,0.0,-999.0,94,0.00,,,0.00,Wunderground v.1.15,2013-03-02 13:56:00,
2013-03-02 06:01:00,48.1,46.5,30.14,WNW,293,0.0,-999.0,94,0.00,,,0.00,Wunderground v.1.15,2013-03-02 14:01:00,
2013-03-02 06:06:00,48.1,46.5,30.14,WNW,293,0.0,-999.0,94,0.00,,,0.00,Wunderground v.1.15,2013-03-02 14:06:00,
2013-03-02 06:11:00,48.2,46.6,30.14,WNW,293,0.0,-999.0,94,0.00,,,0.00,Wunderground v.1.15,2013-03-02 14:11:00,
2013-03-02 06:16:00,48.2,46.6,30.14,WNW,293,0.0,-999.0,94,0.00,,,0.00,Wunderground v.1.15,2013-03-02 14:16:00,
2013-03-02 06:21:00,48.2,46.6,30.14,WNW,293,0.0,-999.0,94,0.00,,,0.00,Wunderground v.1.15,2013-03-02 14:21:00,
2013-03-02 06:26:00,48.1,46.5,30.14,N/A,-737280,0.0,-999.0,94,0.00,,,0.00,Wunderground v.1.15,2013-03-02 14:26:00,
2013-03-02 06:31:00,48.1,46.5,30.14,N/A,-737280,0.0,-999.0,94,0.00,,,0.00,Wunderground v.1.15,2013-03-02 14:31:00,
2013-03-02 06:36:00,48.1,46.5,30.14,N/A,-737280,0.0,-999.0,94,0.00,,,0.00,Wunderground v.1.15,2013-03-02 14:36:00,
2013-03-02 06:41:00,48.2,46.6,30.13,WNW,293,0.0,-999.0,94,0.00,,,0.00,Wunderground v.1.15,2013-03-02 14:41:00,
2013-03-02 06:46:00,48.2,46.6,30.13,WNW,293,0.0,-999.0,94,0.00,,,0.00,Wunderground v.1.15,2013-03-02 14:46:00,
2013-03-02 06:51:00,48.2,46.6,30.13,WNW,293,0.0,-999.0,94,0.00,,,0.00,Wunderground v.1.15,2013-03-02 14:51:00,
2013-03-02 06:56:00,48.0,46.6,30.11,WNW,293,0.0,-999.0,95,0.00,,,0.00,Wunderground v.1.15,2013-03-02 14:56:00,
2013-03-02 07:01:00,48.0,46.6,30.11,WNW,293,0.0,-999.0,95,0.00,,,0.00,Wunderground v.1.15,2013-03-02 15:01:00,
2013-03-02 07:06:00,48.0,46.6,30.11,WNW,293,0.0,-999.0,95,0.00,,,0.00,Wunderground v.1.15,2013-03-02 15:06:00,
2013-03-02 07:11:00,48.0,46.6,30.11,WNW,293,0.0,-999.0,95,0.00,,,0.00,Wunderground v.1.15,2013-03-02 15:11:00,
2013-03-02 07:16:00,48.0,46.6,30.11,WNW,293,0.0,-999.0,95,0.00,,,0.00,Wunderground v.1.15,2013-03-02 15:16:00,
2013-03-02 07:21:00,48.0,46.6,30.11,WNW,293,0.0,-999.0,95,0.00,,,0.00,Wunderground v.1.15,2013-03-02 15:21:00,
2013-03-02 07:26:00,47.9,46.5,30.11,N/A,-737280,0.0,-999.0,95,0.00,,,0.00,Wunderground v.1.15,2013-03-02 15:26:00,
2013-03-02 07:31:00,47.9,46.5,30.11,N/A,-737280,0.0,-999.0,95,0.00,,,0.00,Wunderground v.1.15,2013-03-02 15:31:00,
2013-03-02 07:36:00,47.9,46.5,30.11,N/A,-737280,0.0,-999.0,95,0.00,,,0.00,Wunderground v.1.15,2013-03-02 15:36:00,
2013-03-02 07:41:00,47.9,46.5,30.11,WNW,293,0.0,-999.0,95,0.00,,,0.00,Wunderground v.1.15,2013-03-02 15:41:00,
2013-03-02 07:46:00,47.9,46.5,30.11,WNW,293,0.0,-999.0,95,0.00,,,0.00,Wunderground v.1.15,2013-03-02 15:46:00,
2013-03-02 07:51:00,47.9,46.5,30.11,WNW,293,0.0,-999.0,95,0.00,,,0.00,Wunderground v.1.15,2013-03-02 15:51:00,
2013-03-02 07:56:00,47.8,46.2,30.10,WNW,293,1.0,-999.0,94,0.00,,,0.00,Wunderground v.1.15,2013-03-02 15:56:00,
2013-03-02 08:01:00,47.8,46.2,30.10,WNW,293,1.0,-999.0,94,0.00,,,0.00,Wunderground v.1.15,2013-03-02 16:01:00,
2013-03-02 08:06:00,47.8,46.2,30.10,WNW,293,1.0,-999.0,94,0.00,,,0.00,Wunderground v.1.15,2013-03-02 16:06:00,
2013-03-02 08:11:00,47.3,45.9,30.10,WNW,293,1.0,-999.0,95,0.00,,,0.00,Wunderground v.1.15,2013-03-02 16:11:00,
2013-03-02 08:16:00,47.3,45.9,30.10,WNW,293,1.0,-999.0,95,0.00,,,0.00,Wunderground v.1.15,2013-03-02 16:16:00,
2013-03-02 08:21:00,47.3,45.9,30.10,WNW,293,1.0,-999.0,95,0.00,,,0.00,Wunderground v.1.15,2013-03-02 16:21:00,
2013-03-02 08:26:00,47.4,46.0,30.09,WNW,293,0.0,-999.0,95,0.00,,,0.00,Wunderground v.1.15,2013-03-02 16:26:00,
2013-03-02 09:10:00,48.3,46.9,30.09,WNW,290,1.0,3.0,95,0.00,,,0.00,Wunderground v.1.15,2013-03-02 17:10:00,
2013-03-02 09:19:00,48.4,47.0,30.09,WNW,290,2.0,3.0,95,0.00,,,0.00,Wunderground v.1.15,2013-03-02 17:19:00,
2013-03-02 09:29:00,48.3,46.9,30.09,WNW,290,1.0,1.0,95,0.00,,,0.00,Wunderground v.1.15,2013-03-02 17:29:00,
2013-03-02 09:39:00,48.3,46.9,30.08,WNW,290,0.0,3.0,95,0.00,,,0.00,Wunderground v.1.15,2013-03-02 17:39:00,
2013-03-02 09:49:00,48.4,47.0,30.08,WNW,290,1.0,3.0,95,0.00,,,0.00,Wunderground v.1.15,2013-03-02 17:49:00,
2013-03-02 09:59:00,48.6,47.2,30.08,WNW,290,2.0,3.0,95,0.00,,,0.00,Wunderground v.1.15,2013-03-02 17:59:00,
2013-03-02 10:09:00,48.7,47.3,30.07,WNW,290,1.0,3.0,95,0.00,,,0.00,Wunderground v.1.15,2013-03-02 18:09:00,
2013-03-02 10:19:00,48.6,47.2,30.07,WNW,290,2.0,4.0,95,0.00,,,0.00,Wunderground v.1.15,2013-03-02 18:19:00,
2013-03-02 10:29:00,48.6,47.2,30.07,WNW,290,2.0,2.0,95,0.00,,,0.00,Wunderground v.1.15,2013-03-02 18:29:00,
2013-03-02 10:39:00,48.7,47.3,30.07,WNW,290,2.0,3.0,95,0.00,,,0.00,Wunderground v.1.15,2013-03-02 18:39:00,
2013-03-02 10:49:00,48.7,47.3,30.07,WNW,290,2.0,3.0,95,0.00,,,0.00,Wunderground v.1.15,2013-03-02 18:49:00,
2013-03-02 10:59:00,48.6,47.2,30.06,WNW,290,3.0,3.0,95,0.00,,,0.00,Wunderground v.1.15,2013-03-02 18:59:00,
2013-03-02 11:09:00,48.6,47.2,30.06,WNW,290,1.0,3.0,95,0.00,,,0.00,Wunderground v.1.15,2013-03-02 19:09:00,
2013-03-02 11:19:00,48.6,47.2,30.06,WNW,290,2.0,3.0,95,0.00,,,0.00,Wunderground v.1.15,2013-03-02 19:19:00,
2013-03-02 11:29:00,48.7,47.3,30.07,WNW,290,1.0,1.0,95,0.00,,,0.00,Wunderground v.1.15,2013-03-02 19:29:00,
2013-03-02 11:39:00,48.7,47.3,30.07,WNW,290,3.0,6.0,95,0.00,,,0.00,Wunderground v.1.15,2013-03-02 19:39:00,
2013-03-02 11:49:00,47.6,46.2,30.07,WNW,290,7.0,8.0,95,0.00,,,0.00,Wunderground v.1.15,2013-03-02 19:49:00,
2013-03-02 11:59:00,46.6,45.0,30.08,West,277,11.0,15.0,94,0.00,,,0.00,Wunderground v.1.15,2013-03-02 19:59:00,
2013-03-02 12:09:00,45.4,43.8,30.09,West,277,15.0,17.0,94,0.00,,,0.00,Wunderground v.1.15,2013-03-02 20:09:00,
2013-03-02 12:20:00,44.5,42.9,30.09,West,279,19.0,19.0,94,0.00,,,0.00,Wunderground v.1.15,2013-03-02 20:20:00,
2013-03-02 12:30:00,44.5,42.9,30.09,West,279,17.0,23.0,94,0.00,,,0.00,Wunderground v.1.15,2013-03-02 20:30:00,
2013-03-02 12:40:00,43.8,41.9,30.09,West,280,20.0,23.0,93,0.00,,,0.01,Wunderground v.1.15,2013-03-02 20:40:00,
2013-03-02 12:50:00,43.9,41.7,30.09,West,273,20.0,24.0,92,0.00,,,0.01,Wunderground v.1.15,2013-03-02 20:50:00,
2013-03-02 13:00:00,43.9,41.4,30.09,West,274,21.0,21.0,91,0.00,,,0.01,Wunderground v.1.15,2013-03-02 21:00:00,
2013-03-02 13:09:00,44.0,41.5,30.09,NW,317,21.0,25.0,91,0.00,,,0.01,Wunderground v.1.15,2013-03-02 21:09:00,
2013-03-02 13:20:00,44.0,41.5,30.10,WNW,288,21.0,23.0,91,0.00,,,0.01,Wunderground v.1.15,2013-03-02 21:20:00,
2013-03-02 13:29:00,43.8,41.3,30.10,West,279,19.0,22.0,91,0.00,,,0.01,Wunderground v.1.15,2013-03-02 21:29:00,
2013-03-02 13:39:00,43.7,41.0,30.10,West,277,21.0,21.0,90,0.00,,,0.01,Wunderground v.1.15,2013-03-02 21:39:00,
2013-03-02 13:49:00,44.2,41.5,30.10,West,280,20.0,20.0,90,0.00,,,0.01,Wunderground v.1.15,2013-03-02 21:49:00,
2013-03-02 13:59:00,44.1,41.1,30.09,WNW,288,18.0,18.0,89,0.00,,,0.01,Wunderground v.1.15,2013-03-02 21:59:00,
2013-03-02 14:10:00,43.8,40.8,30.10,West,280,18.0,21.0,89,0.00,,,0.01,Wunderground v.1.15,2013-03-02 22:10:00,
2013-03-02 14:19:00,43.8,41.1,30.10,NW,321,17.0,19.0,90,0.00,,,0.01,Wunderground v.1.15,2013-03-02 22:19:00,
2013-03-02 14:29:00,43.6,40.6,30.10,WNW,286,18.0,22.0,89,0.00,,,0.01,Wunderground v.1.15,2013-03-02 22:29:00,
2013-03-02 14:39:00,43.4,40.4,30.10,WNW,290,16.0,16.0,89,0.00,,,0.01,Wunderground v.1.15,2013-03-02 22:39:00,
2013-03-02 14:49:00,43.6,40.6,30.10,West,276,16.0,18.0,89,0.00,,,0.01,Wunderground v.1.15,2013-03-02 22:49:00,
2013-03-02 14:59:00,43.7,40.1,30.10,NW,312,16.0,16.0,87,0.00,,,0.01,Wunderground v.1.15,2013-03-02 22:59:00,
2013-03-02 15:09:00,43.7,39.8,30.10,NW,313,16.0,16.0,86,0.00,,,0.01,Wunderground v.1.15,2013-03-02 23:09:00,
2013-03-02 15:19:00,43.6,39.7,30.10,West,281,17.0,17.0,86,0.00,,,0.01,Wunderground v.1.15,2013-03-02 23:19:00,
2013-03-02 15:29:00,43.6,40.0,30.10,NW,311,16.0,20.0,87,0.00,,,0.01,Wunderground v.1.15,2013-03-02 23:29:00,
2013-03-02 15:39:00,43.8,40.2,30.10,West,280,18.0,19.0,87,0.00,,,0.01,Wunderground v.1.15,2013-03-02 23:39:00,
2013-03-02 15:49:00,44.1,40.2,30.10,WNW,286,18.0,19.0,86,0.00,,,0.01,Wunderground v.1.15,2013-03-02 23:49:00,
2013-03-02 15:59:00,44.6,40.4,30.10,West,263,16.0,18.0,85,0.00,,,0.01,Wunderground v.1.15,2013-03-02 23:59:00,
2013-03-02 16:09:00,45.0,39.8,30.10,West,280,17.0,18.0,82,0.00,,,0.01,Wunderground v.1.15,2013-03-03 00:09:00,
2013-03-02 16:19:00,45.1,39.6,30.10,WNW,284,20.0,20.0,81,0.00,,,0.01,Wunderground v.1.15,2013-03-03 00:19:00,
2013-03-02 16:29:00,45.3,40.1,30.11,NW,304,16.0,19.0,82,0.00,,,0.01,Wunderground v.1.15,2013-03-03 00:29:00,
2013-03-02 16:39:00,45.4,39.6,30.10,WNW,298,17.0,17.0,80,0.00,,,0.01,Wunderground v.1.15,2013-03-03 00:39:00,
2013-03-02 16:49:00,45.0,39.5,30.11,West,275,17.0,23.0,81,0.00,,,0.01,Wunderground v.1.15,2013-03-03 00:49:00,
2013-03-02 16:59:00,44.7,39.9,30.11,WNW,282,16.0,17.0,83,0.00,,,0.01,Wunderground v.1.15,2013-03-03 00:59:00,
2013-03-02 17:09:00,43.9,39.7,30.12,West,277,16.0,18.0,85,0.00,,,0.01,Wunderground v.1.15,2013-03-03 01:09:00,
2013-03-02 17:20:00,43.8,39.9,30.11,West,275,15.0,15.0,86,0.00,,,0.01,Wunderground v.1.15,2013-03-03 01:20:00,
2013-03-02 17:30:00,43.8,39.3,30.11,NW,313,16.0,16.0,84,0.00,,,0.01,Wunderground v.1.15,2013-03-03 01:30:00,
2013-03-02 17:40:00,44.4,38.9,30.11,WNW,288,17.0,17.0,81,0.00,,,0.01,Wunderground v.1.15,2013-03-03 01:40:00,
2013-03-02 17:50:00,44.9,38.5,30.12,WNW,295,16.0,24.0,78,0.00,,,0.01,Wunderground v.1.15,2013-03-03 01:50:00,
2013-03-02 18:00:00,44.8,38.7,30.13,WNW,298,16.0,16.0,79,0.00,,,0.01,Wunderground v.1.15,2013-03-03 02:00:00,
2013-03-02 18:10:00,44.5,38.4,30.13,West,274,17.0,17.0,79,0.00,,,0.01,Wunderground v.1.15,2013-03-03 02:10:00,
2013-03-02 18:20:00,44.3,38.2,30.13,West,263,13.0,15.0,79,0.00,,,0.01,Wunderground v.1.15,2013-03-03 02:20:00,
2013-03-02 18:29:00,44.3,38.2,30.14,WNW,285,17.0,20.0,79,0.00,,,0.01,Wunderground v.1.15,2013-03-03 02:29:00,
2013-03-02 18:39:00,43.8,37.4,30.14,NW,321,17.0,17.0,78,0.00,,,0.02,Wunderground v.1.15,2013-03-03 02:39:00,
2013-03-02 18:49:00,43.3,37.5,30.15,West,281,16.0,16.0,80,0.00,,,0.02,Wunderground v.1.15,2013-03-03 02:49:00,
2013-03-02 18:59:00,43.0,37.3,30.15,WNW,288,11.0,12.0,80,0.00,,,0.02,Wunderground v.1.15,2013-03-03 02:59:00,
2013-03-02 19:09:00,43.2,37.4,30.16,WNW,289,12.0,13.0,80,0.00,,,0.02,Wunderground v.1.15,2013-03-03 03:09:00,
2013-03-02 19:19:00,43.5,37.1,30.16,SW,229,12.0,12.0,78,0.00,,,0.02,Wunderground v.1.15,2013-03-03 03:19:00,
2013-03-02 19:29:00,43.8,37.4,30.17,WNW,288,12.0,14.0,78,0.00,,,0.02,Wunderground v.1.15,2013-03-03 03:29:00,
2013-03-02 19:39:00,43.8,37.1,30.17,NW,315,13.0,13.0,77,0.00,,,0.02,Wunderground v.1.15,2013-03-03 03:39:00,
2013-03-02 19:49:00,43.7,36.3,30.18,WNW,288,14.0,14.0,75,0.00,,,0.02,Wunderground v.1.15,2013-03-03 03:49:00,
2013-03-02 19:59:00,43.6,35.2,30.18,WNW,296,14.0,14.0,72,0.00,,,0.02,Wunderground v.1.15,2013-03-03 03:59:00,
2013-03-02 20:09:00,43.7,35.3,30.18,NW,304,11.0,11.0,72,0.00,,,0.02,Wunderground v.1.15,2013-03-03 04:09:00,
2013-03-02 20:19:00,43.7,34.6,30.18,West,261,12.0,12.0,70,0.00,,,0.02,Wunderground v.1.15,2013-03-03 04:19:00,
2013-03-02 20:29:00,43.6,34.8,30.19,WSW,256,11.0,11.0,71,0.00,,,0.02,Wunderground v.1.15,2013-03-03 04:29:00,
2013-03-02 20:39:00,43.4,34.6,30.19,West,263,9.0,9.0,71,0.00,,,0.02,Wunderground v.1.15,2013-03-03 04:39:00,
2013-03-02 20:49:00,43.4,33.5,30.18,West,259,10.0,10.0,68,0.00,,,0.02,Wunderground v.1.15,2013-03-03 04:49:00,
2013-03-02 20:59:00,43.3,32.3,30.18,WSW,246,10.0,11.0,65,0.00,,,0.02,Wunderground v.1.15,2013-03-03 04:59:00,
2013-03-02 21:09:00,43.3,31.9,30.18,WSW,241,11.0,11.0,64,0.00,,,0.02,Wunderground v.1.15,2013-03-03 05:09:00,
2013-03-02 21:19:00,43.1,32.1,30.18,West,267,9.0,9.0,65,0.00,,,0.02,Wunderground v.1.15,2013-03-03 05:19:00,
2013-03-02 21:29:00,42.7,32.1,30.18,WSW,247,7.0,7.0,66,0.00,,,0.02,Wunderground v.1.15,2013-03-03 05:29:00,
2013-03-02 21:39:00,42.5,31.9,30.19,West,273,7.0,11.0,66,0.00,,,0.02,Wunderground v.1.15,2013-03-03 05:39:00,
2013-03-02 21:49:00,42.8,32.2,30.19,WSW,258,9.0,9.0,66,0.00,,,0.02,Wunderground v.1.15,2013-03-03 05:49:00,
2013-03-02 21:59:00,43.1,32.5,30.19,West,275,7.0,7.0,66,0.00,,,0.02,Wunderground v.1.15,2013-03-03 05:59:00,